Time;durP1;ratioP1;P1;durP2;ratioP2;P2;SDS_P1;SDS_P2;PMS_P1;PMS_P2;Temp;Humidity;BMP_temperature;BMP_pressure;BME280_temperature;BME280_humidity;BME280_pressure;Samples;Min_cycle;Max_cycle;Signal;HPM_P1;HPM_P2
2022/02/13 00:00:10;;;;;;;10.87;7.27;;;-1.20;99.90;;;;;;4915330;29;20185;-72
2022/02/13 00:02:37;;;;;;;11.73;6.97;;;-1.20;99.90;;;;;;4898380;29;20595;-72
2022/02/13 00:05:04;;;;;;;8.63;5.80;;;-1.20;99.90;;;;;;4915102;29;20449;-69
2022/02/13 00:07:35;;;;;;;11.83;7.40;;;-1.20;99.90;;;;;;4915164;29;20401;-71
2022/02/13 00:10:03;;;;;;;10.20;6.30;;;-1.20;99.90;;;;;;4915279;29;20466;-71
2022/02/13 00:12:29;;;;;;;12.67;7.17;;;-1.20;99.90;;;;;;4914990;29;20445;-74
2022/02/13 00:14:55;;;;;;;12.33;6.13;;;-1.20;99.90;;;;;;4915307;29;20988;-71
2022/02/13 00:17:21;;;;;;;8.93;6.47;;;-1.20;99.90;;;;;;4915330;29;20243;-71
2022/02/13 00:19:47;;;;;;;7.77;5.80;;;-1.30;99.90;;;;;;4915247;29;20180;-70
2022/02/13 00:22:13;;;;;;;13.20;6.93;;;-1.30;99.90;;;;;;4914981;29;20442;-71
2022/02/13 00:24:39;;;;;;;7.47;5.77;;;-1.30;99.90;;;;;;4914840;29;20182;-72
2022/02/13 00:27:04;;;;;;;11.50;7.00;;;-1.30;99.90;;;;;;4915249;29;20425;-73
2022/02/13 00:29:30;;;;;;;11.10;6.53;;;-1.30;99.90;;;;;;4914983;29;20270;-72
2022/02/13 00:31:56;;;;;;;12.03;6.70;;;-1.20;99.90;;;;;;4915673;29;20698;-72
2022/02/13 00:34:21;;;;;;;9.00;7.03;;;-1.20;99.90;;;;;;4915192;29;20189;-71
2022/02/13 00:36:47;;;;;;;11.07;6.23;;;-1.20;99.90;;;;;;4915002;29;20182;-73
2022/02/13 00:39:12;;;;;;;8.40;6.20;;;-1.20;99.90;;;;;;4898312;29;20376;-71
2022/02/13 00:41:38;;;;;;;10.30;6.43;;;-1.20;99.90;;;;;;4915127;29;20266;-71
2022/02/13 00:44:04;;;;;;;13.73;6.77;;;-1.20;99.90;;;;;;4913705;29;20237;-71
2022/02/13 00:46:30;;;;;;;9.60;6.57;;;-1.20;99.90;;;;;;4915028;29;20300;-72
2022/02/13 00:48:56;;;;;;;12.63;7.03;;;-1.20;99.90;;;;;;4915206;29;20415;-73
2022/02/13 00:51:21;;;;;;;7.80;7.00;;;-1.20;99.90;;;;;;4915367;29;20199;-71
2022/02/13 00:53:47;;;;;;;7.80;6.20;;;-1.20;99.90;;;;;;4915168;29;20182;-71
2022/02/13 00:56:14;;;;;;;18.60;6.97;;;-1.10;99.90;;;;;;4915358;29;20399;-71
2022/02/13 00:58:40;;;;;;;10.10;6.60;;;-1.10;99.90;;;;;;4916676;29;20205;-70
2022/02/13 05:32:58;;;;;;;11.50;7.00;;;-1.60;99.90;;;;;;5039108;23;21081;-70
2022/02/13 05:35:25;;;;;;;12.67;7.57;;;-1.70;99.90;;;;;;4972783;28;20423;-71
2022/02/13 05:37:51;;;;;;;10.00;7.07;;;-1.70;99.90;;;;;;4966498;28;20539;-70
2022/02/13 05:40:17;;;;;;;10.57;7.07;;;-1.70;99.90;;;;;;4975349;28;20390;-70
2022/02/13 05:42:42;;;;;;;8.33;6.73;;;-1.70;99.90;;;;;;4975211;28;20464;-71
2022/02/13 05:45:08;;;;;;;16.60;7.83;;;-1.60;99.90;;;;;;4974854;28;20211;-71
2022/02/13 05:47:35;;;;;;;8.40;6.57;;;-1.60;99.90;;;;;;4975095;28;20188;-71
2022/02/13 05:50:00;;;;;;;12.87;7.27;;;-1.70;99.90;;;;;;4975153;28;20766;-71
2022/02/13 05:52:26;;;;;;;14.23;8.70;;;-1.60;99.90;;;;;;4974889;28;20431;-71
2022/02/13 05:54:51;;;;;;;13.63;8.43;;;-1.50;99.90;;;;;;4974903;28;20180;-69
2022/02/13 05:57:17;;;;;;;11.80;6.80;;;-1.50;99.90;;;;;;4974809;28;20648;-71
2022/02/13 05:59:43;;;;;;;12.80;8.10;;;-1.50;99.90;;;;;;4974924;28;20174;-72
2022/02/13 06:02:08;;;;;;;11.63;7.93;;;-1.40;99.90;;;;;;4974310;28;20196;-72
2022/02/13 06:04:34;;;;;;;11.47;8.10;;;-1.40;99.90;;;;;;4974416;28;20552;-72
2022/02/13 06:06:59;;;;;;;13.27;7.50;;;-1.30;99.90;;;;;;4974683;28;20545;-73
2022/02/13 06:09:25;;;;;;;13.97;7.50;;;-1.30;99.90;;;;;;4974587;28;20181;-72
2022/02/13 06:11:51;;;;;;;9.83;7.30;;;-1.30;99.90;;;;;;4974526;28;20238;-72
2022/02/13 06:14:17;;;;;;;11.17;7.53;;;-1.30;99.90;;;;;;4974158;28;20191;-70
2022/02/13 06:16:42;;;;;;;12.40;7.43;;;-1.30;99.90;;;;;;4974773;28;20786;-72
2022/02/13 06:19:08;;;;;;;19.80;8.13;;;-1.30;99.90;;;;;;4974279;28;20182;-72
2022/02/13 06:21:34;;;;;;;14.50;8.43;;;-1.30;99.90;;;;;;4974445;28;20276;-71
2022/02/13 06:23:59;;;;;;;11.30;7.70;;;-1.30;99.90;;;;;;4974199;28;20176;-71
2022/02/13 06:26:25;;;;;;;15.93;8.93;;;-1.30;99.90;;;;;;4974167;28;20219;-70
2022/02/13 06:28:51;;;;;;;14.20;7.00;;;-1.30;99.90;;;;;;4958480;28;20178;-69
2022/02/13 06:31:17;;;;;;;8.93;7.00;;;-1.30;99.90;;;;;;4954487;29;20467;-70
2022/02/13 06:33:42;;;;;;;12.23;7.27;;;-1.20;99.90;;;;;;4954739;29;20797;-69
2022/02/13 06:36:08;;;;;;;10.97;6.37;;;-1.10;99.90;;;;;;4955013;29;20183;-69
2022/02/13 06:38:34;;;;;;;10.10;6.70;;;-1.00;99.90;;;;;;4954731;29;20191;-70
2022/02/13 06:40:59;;;;;;;14.47;7.93;;;-0.70;99.90;;;;;;4954691;29;20203;-70
2022/02/13 06:43:25;;;;;;;18.10;7.93;;;-0.60;99.90;;;;;;4954335;29;20186;-69
2022/02/13 06:45:50;;;;;;;13.80;6.87;;;-0.40;99.90;;;;;;4954548;29;20206;-70
2022/02/13 06:48:16;;;;;;;10.20;7.57;;;-0.30;99.90;;;;;;4954459;29;20253;-70
2022/02/13 06:50:42;;;;;;;7.63;6.33;;;-0.10;99.90;;;;;;4954454;29;20244;-70
2022/02/13 06:53:07;;;;;;;7.97;7.10;;;0.10;99.90;;;;;;4954291;29;20528;-70
2022/02/13 06:55:33;;;;;;;10.40;7.17;;;0.20;99.90;;;;;;4953815;28;20213;-69
2022/02/13 06:57:59;;;;;;;9.90;7.23;;;0.30;99.90;;;;;;4954237;29;20182;-69
2022/02/13 07:00:25;;;;;;;10.90;7.43;;;0.40;99.90;;;;;;4953996;29;20185;-69
2022/02/13 07:02:50;;;;;;;9.73;6.40;;;0.50;99.90;;;;;;4940342;28;20616;-71
2022/02/13 07:05:16;;;;;;;14.00;7.43;;;0.60;99.90;;;;;;4953479;28;20495;-69
2022/02/13 07:07:42;;;;;;;9.80;6.60;;;0.70;99.90;;;;;;4953761;28;20207;-69
2022/02/13 07:10:10;;;;;;;22.70;7.53;;;0.90;99.90;;;;;;4953268;28;20292;-69
2022/02/13 07:12:36;;;;;;;10.63;6.83;;;0.90;99.90;;;;;;4953657;29;20454;-69
2022/02/13 07:15:05;;;;;;;8.50;6.83;;;0.90;99.90;;;;;;4953463;28;20449;-69
2022/02/13 07:17:31;;;;;;;10.17;6.10;;;1.20;99.90;;;;;;4953523;29;20463;-69
2022/02/13 07:19:56;;;;;;;9.50;6.23;;;1.60;99.90;;;;;;4939605;29;21021;-69
2022/02/13 07:22:24;;;;;;;8.27;5.10;;;1.70;99.90;;;;;;4934812;29;20218;-70
2022/02/13 07:24:49;;;;;;;7.47;4.43;;;2.00;99.90;;;;;;4952964;29;20208;-69
2022/02/13 07:27:15;;;;;;;8.97;4.70;;;2.10;99.90;;;;;;4953395;29;20491;-70
2022/02/13 07:29:41;;;;;;;12.13;5.40;;;2.50;99.90;;;;;;4953516;29;20211;-69
2022/02/13 07:32:07;;;;;;;7.27;4.30;;;2.90;99.90;;;;;;4953116;29;20233;-70
2022/02/13 07:34:32;;;;;;;6.10;3.67;;;3.90;99.90;;;;;;4953115;29;20207;-70
2022/02/13 07:37:04;;;;;;;7.37;5.07;;;5.10;99.90;;;;;;4953463;29;20457;-70
2022/02/13 07:39:31;;;;;;;8.70;3.90;;;6.20;99.90;;;;;;4953428;29;20256;-71
2022/02/13 07:41:57;;;;;;;5.90;4.13;;;7.30;99.90;;;;;;4953491;29;20471;-71
2022/02/13 07:44:23;;;;;;;11.20;5.30;;;8.30;99.90;;;;;;4952951;29;20447;-69
2022/02/13 07:46:49;;;;;;;6.57;4.80;;;8.80;99.90;;;;;;4946756;29;20234;-70
2022/02/13 07:49:16;;;;;;;6.30;4.30;;;8.70;99.90;;;;;;4916876;29;20876;-70
2022/02/13 07:51:42;;;;;;;10.50;4.00;;;9.50;99.90;;;;;;4916711;29;20569;-71
2022/02/13 07:54:07;;;;;;;7.63;4.10;;;9.90;99.90;;;;;;4933673;29;20565;-71
2022/02/13 07:56:33;;;;;;;8.00;4.27;;;9.60;99.90;;;;;;4933942;29;20240;-71
2022/02/13 07:58:58;;;;;;;5.60;4.37;;;10.10;99.90;;;;;;4934162;29;20237;-71
2022/02/13 08:01:24;;;;;;;7.40;3.47;;;10.20;99.90;;;;;;4933538;29;20224;-71
2022/02/13 08:03:50;;;;;;;9.70;4.13;;;10.20;99.90;;;;;;4934341;29;20209;-70
2022/02/13 08:06:18;;;;;;;4.83;4.33;;;10.50;99.90;;;;;;4933638;29;20492;-70
2022/02/13 08:08:43;;;;;;;13.17;4.97;;;11.30;99.90;;;;;;4948434;28;20205;-70
2022/02/13 08:11:09;;;;;;;5.53;4.30;;;11.90;99.90;;;;;;4952585;28;20519;-70
2022/02/13 08:13:35;;;;;;;6.57;3.90;;;12.20;99.90;;;;;;4952470;29;20586;-70
2022/02/13 08:16:01;;;;;;;7.77;4.60;;;12.70;99.90;;;;;;4952369;28;20277;-71
2022/02/13 08:18:27;;;;;;;8.77;4.53;;;11.80;99.90;;;;;;4952666;29;20452;-70
2022/02/13 08:20:54;;;;;;;4.30;3.90;;;12.10;99.90;;;;;;4952674;28;20225;-68
2022/02/13 08:23:24;;;;;;;10.40;4.80;;;11.70;99.90;;;;;;4952527;29;20231;-70
2022/02/13 08:25:50;;;;;;;7.30;4.07;;;11.70;99.90;;;;;;4952834;28;20490;-70
2022/02/13 08:28:16;;;;;;;4.77;3.83;;;11.50;99.90;;;;;;4952895;29;20439;-71
2022/02/13 08:30:41;;;;;;;9.20;3.87;;;11.20;99.90;;;;;;4950076;28;20594;-69
2022/02/13 08:33:08;;;;;;;5.80;4.20;;;10.80;99.90;;;;;;4952075;29;20324;-70
2022/02/13 08:35:34;;;;;;;6.77;4.33;;;10.90;99.90;;;;;;4952795;29;20208;-68
2022/02/13 08:38:00;;;;;;;9.80;4.03;;;11.10;99.90;;;;;;4952483;28;20551;-70
2022/02/13 08:40:27;;;;;;;7.20;4.40;;;11.10;99.90;;;;;;4952271;29;20501;-70
2022/02/13 08:42:52;;;;;;;8.00;4.60;;;11.00;99.90;;;;;;4952430;28;20486;-71
2022/02/13 08:45:18;;;;;;;7.13;4.43;;;11.30;99.90;;;;;;4952523;29;21185;-68
2022/02/13 08:47:44;;;;;;;6.37;4.03;;;11.20;99.90;;;;;;4952164;28;20219;-70
2022/02/13 08:50:10;;;;;;;10.03;4.10;;;11.00;99.90;;;;;;4951991;29;20569;-70
2022/02/13 08:52:35;;;;;;;9.00;4.67;;;10.70;99.90;;;;;;4950543;29;20216;-70
2022/02/13 08:55:02;;;;;;;10.47;5.90;;;10.70;99.90;;;;;;4951586;29;21159;-69
2022/02/13 08:57:28;;;;;;;8.70;4.40;;;10.80;99.90;;;;;;4934371;29;20257;-70
2022/02/13 08:59:53;;;;;;;6.87;4.40;;;10.90;99.90;;;;;;4951889;29;20832;-70
2022/02/13 09:02:19;;;;;;;8.83;4.60;;;11.00;99.90;;;;;;4951338;29;20451;-72
2022/02/13 09:04:44;;;;;;;11.17;6.20;;;10.70;99.90;;;;;;4951435;29;20555;-70
2022/02/13 09:07:10;;;;;;;8.03;6.07;;;10.70;99.90;;;;;;4952117;29;20259;-68
2022/02/13 09:09:36;;;;;;;10.00;6.97;;;10.70;99.90;;;;;;4952236;29;20200;-70
2022/02/13 09:12:01;;;;;;;9.43;6.70;;;11.00;99.90;;;;;;4950992;29;20297;-70
2022/02/13 09:14:27;;;;;;;10.30;8.30;;;10.90;99.90;;;;;;4951831;29;20667;-69
2022/02/13 09:16:53;;;;;;;8.87;7.00;;;10.70;99.90;;;;;;4945234;29;20287;-68
2022/02/13 09:19:20;;;;;;;10.73;7.43;;;10.80;99.90;;;;;;4933824;29;20197;-70
2022/02/13 09:21:51;;;;;;;13.67;7.50;;;10.90;99.90;;;;;;4936313;29;20244;-70
2022/02/13 09:24:17;;;;;;;8.13;6.50;;;11.20;99.90;;;;;;4936310;29;20492;-71
2022/02/13 09:26:43;;;;;;;9.60;7.47;;;11.40;99.90;;;;;;4936336;29;20566;-71
2022/02/13 09:29:08;;;;;;;10.23;7.47;;;11.70;99.90;;;;;;4936394;29;20536;-69
2022/02/13 09:31:34;;;;;;;10.47;4.80;;;12.20;99.90;;;;;;4936064;29;20717;-69
2022/02/13 09:33:59;;;;;;;7.83;6.43;;;12.20;99.90;;;;;;4936241;29;20209;-72
2022/02/13 09:36:25;;;;;;;17.13;5.60;;;12.60;99.90;;;;;;4936057;29;20254;-71
2022/02/13 09:38:50;;;;;;;8.40;4.90;;;12.30;99.90;;;;;;4936205;29;20202;-70
2022/02/13 09:41:18;;;;;;;10.33;7.73;;;12.40;99.90;;;;;;4935948;29;20229;-71
2022/02/13 09:43:44;;;;;;;15.23;6.17;;;12.60;99.90;;;;;;4935988;29;20205;-71
2022/02/13 09:46:13;;;;;;;8.53;5.40;;;12.80;99.90;;;;;;4935910;29;20472;-70
2022/02/13 09:48:38;;;;;;;6.20;4.80;;;13.00;99.90;;;;;;4935987;29;20198;-71
2022/02/13 09:51:04;;;;;;;5.50;5.00;;;13.10;99.90;;;;;;4919026;29;20449;-72
2022/02/13 09:53:34;;;;;;;11.47;6.13;;;13.40;99.90;;;;;;4935481;29;20227;-71
2022/02/13 09:56:01;;;;;;;8.40;4.93;;;13.30;99.90;;;;;;4936138;29;20287;-71
2022/02/13 09:58:26;;;;;;;9.53;5.17;;;13.50;99.90;;;;;;4944156;29;20479;-71
2022/02/13 10:00:54;;;;;;;14.67;5.70;;;13.90;99.90;;;;;;4948437;29;20436;-69
2022/02/13 10:03:28;;;;;;;10.40;5.30;;;14.00;99.90;;;;;;4942900;28;20274;-69
2022/02/13 10:06:13;;;;;;;9.80;4.80;;;14.00;99.90;;;;;;4955134;29;20491;-72
2022/02/13 10:08:46;;;;;;;16.30;5.23;;;13.90;99.90;;;;;;4951530;28;20575;-71
2022/02/13 10:11:28;;;;;;;8.50;4.80;;;14.10;99.90;;;;;;4954589;29;20530;-70
2022/02/13 10:13:56;;;;;;;8.30;4.77;;;13.40;99.90;;;;;;4954820;29;20518;-71
2022/02/13 10:16:29;;;;;;;10.10;6.27;;;13.60;99.90;;;;;;4954184;28;20544;-72
2022/02/13 10:19:08;;;;;;;9.13;5.27;;;13.00;99.90;;;;;;4954886;29;20444;-71
2022/02/13 10:21:50;;;;;;;8.00;5.10;;;12.90;99.90;;;;;;4951945;28;20455;-68
2022/02/13 10:24:32;;;;;;;7.43;4.63;;;13.00;99.90;;;;;;4954430;29;20444;-71
2022/02/13 10:27:04;;;;;;;9.83;5.07;;;13.90;99.90;;;;;;4954679;28;20579;-70
2022/02/13 10:29:31;;;;;;;11.67;5.27;;;14.50;99.90;;;;;;4954495;29;20452;-71
2022/02/13 10:32:17;;;;;;;7.50;4.47;;;14.30;99.90;;;;;;4952881;28;20484;-71
2022/02/13 10:35:03;;;;;;;6.20;4.27;;;14.60;99.90;;;;;;4953177;29;20475;-71
2022/02/13 10:37:48;;;;;;;7.57;5.00;;;14.90;99.90;;;;;;4954082;28;20543;-70
2022/02/13 10:40:25;;;;;;;9.53;5.33;;;15.10;99.90;;;;;;4954131;29;20456;-71
2022/02/13 10:43:10;;;;;;;8.13;5.00;;;14.70;99.90;;;;;;4953215;28;20430;-72
2022/02/13 10:45:40;;;;;;;9.53;5.43;;;14.60;99.90;;;;;;4954356;29;20217;-68
2022/02/13 10:48:08;;;;;;;12.60;5.40;;;14.50;99.90;;;;;;4953100;28;20491;-72
2022/02/13 10:50:36;;;;;;;7.87;4.97;;;14.20;99.90;;;;;;4953430;29;20440;-72
2022/02/13 10:53:04;;;;;;;9.50;5.30;;;14.20;99.90;;;;;;4943383;28;20493;-72
2022/02/13 10:55:32;;;;;;;11.47;5.10;;;14.30;99.90;;;;;;4934731;29;20455;-70
2022/02/13 10:57:58;;;;;;;7.23;3.87;;;14.20;99.90;;;;;;4935080;29;20545;-71
2022/02/13 11:00:30;;;;;;;7.53;4.80;;;14.00;99.90;;;;;;4934470;29;20441;-70
2022/02/13 11:03:02;;;;;;;7.23;5.13;;;14.20;99.90;;;;;;4934749;29;20463;-69
2022/02/13 11:05:30;;;;;;;8.63;4.70;;;14.50;99.90;;;;;;4934629;29;20841;-70
2022/02/13 11:08:02;;;;;;;8.67;4.77;;;14.70;99.90;;;;;;4935056;29;20472;-69
2022/02/13 11:10:35;;;;;;;7.50;4.53;;;14.80;99.90;;;;;;4934561;29;20442;-71
2022/02/13 11:13:01;;;;;;;4.80;3.97;;;14.60;99.90;;;;;;4934678;29;20547;-71
2022/02/13 11:15:31;;;;;;;3.80;3.50;;;14.60;99.90;;;;;;4934754;29;20445;-71
2022/02/13 11:18:08;;;;;;;5.20;4.20;;;14.90;99.90;;;;;;4949790;28;21010;-70
2022/02/13 11:20:35;;;;;;;5.37;4.00;;;15.00;99.90;;;;;;4953617;29;20440;-71
2022/02/13 11:23:31;;;;;;;11.30;4.67;;;15.20;99.90;;;;;;4953558;28;20456;-70
2022/02/13 11:25:59;;;;;;;8.37;4.30;;;14.80;99.90;;;;;;4953801;29;20472;-70
2022/02/13 11:28:46;;;;;;;8.40;4.40;;;15.00;99.90;;;;;;4953182;28;20452;-71
2022/02/13 11:31:39;;;;;;;6.27;4.13;;;14.90;99.90;;;;;;4943315;28;20464;-67
2022/02/13 11:34:07;;;;;;;6.13;3.73;;;14.80;99.90;;;;;;4953184;28;20463;-71
2022/02/13 11:36:50;;;;;;;6.03;4.80;;;14.60;99.90;;;;;;4936287;29;20502;-70
2022/02/13 11:39:40;;;;;;;21.00;5.03;;;14.60;99.90;;;;;;4952934;28;20964;-69
2022/02/13 11:42:19;;;;;;;6.43;4.33;;;14.50;99.90;;;;;;4945761;28;20448;-71
2022/02/13 11:44:54;;;;;;;6.30;3.93;;;14.40;99.90;;;;;;4953059;29;20531;-68
2022/02/13 11:47:32;;;;;;;5.13;4.53;;;14.50;99.90;;;;;;4935873;29;20475;-70
2022/02/13 11:50:14;;;;;;;5.90;3.93;;;14.40;99.90;;;;;;4953116;29;20511;-70
2022/02/13 11:52:51;;;;;;;10.70;4.30;;;14.50;99.90;;;;;;4952768;28;20464;-67
2022/02/13 11:55:18;;;;;;;6.30;3.97;;;14.60;99.90;;;;;;4953205;29;20457;-67
2022/02/13 11:57:58;;;;;;;7.97;4.10;;;14.30;99.90;;;;;;4953164;28;20455;-70
2022/02/13 12:00:41;;;;;;;5.27;4.00;;;14.30;99.90;;;;;;4952959;29;20450;-69
2022/02/13 12:03:28;;;;;;;7.33;4.00;;;14.20;99.90;;;;;;4953547;28;20498;-70
2022/02/13 12:06:26;;;;;;;11.17;4.77;;;14.10;99.90;;;;;;4953968;29;20467;-70
2022/02/13 12:08:55;;;;;;;6.57;3.33;;;14.10;99.90;;;;;;4935630;29;20531;-69
2022/02/13 12:11:29;;;;;;;7.33;3.87;;;14.10;99.90;;;;;;4952480;29;20443;-69
2022/02/13 12:13:54;;;;;;;6.00;4.00;;;14.00;99.90;;;;;;4944382;28;20456;-70
2022/02/13 12:16:24;;;;;;;9.30;4.30;;;13.90;99.90;;;;;;4936062;28;20451;-70
2022/02/13 12:18:53;;;;;;;5.07;3.97;;;14.00;99.90;;;;;;4953125;28;20638;-71
2022/02/13 12:21:26;;;;;;;6.50;4.10;;;14.00;99.90;;;;;;4926364;28;20526;-70
2022/02/13 12:24:03;;;;;;;6.37;3.97;;;13.70;99.90;;;;;;4933977;29;20514;-72
2022/02/13 12:26:30;;;;;;;6.37;4.03;;;13.70;99.90;;;;;;4932806;29;20467;-71
2022/02/13 12:28:56;;;;;;;4.10;3.00;;;13.60;99.90;;;;;;4934080;29;21255;-71
2022/02/13 12:31:23;;;;;;;8.83;3.70;;;13.70;99.90;;;;;;4933939;29;20468;-72
2022/02/13 12:33:53;;;;;;;5.97;3.53;;;13.70;99.90;;;;;;4933938;29;20423;-71
2022/02/13 12:36:25;;;;;;;11.60;4.40;;;13.60;99.90;;;;;;4933620;29;20421;-70
2022/02/13 12:38:56;;;;;;;9.67;3.40;;;13.60;99.90;;;;;;4932806;29;20427;-71
2022/02/13 12:41:25;;;;;;;6.97;3.50;;;13.80;99.90;;;;;;4933061;29;20437;-71
2022/02/13 12:43:51;;;;;;;5.90;3.23;;;13.80;99.90;;;;;;4933336;29;20425;-70
2022/02/13 12:46:19;;;;;;;4.83;3.40;;;13.80;99.90;;;;;;4933208;29;20468;-72
2022/02/13 12:48:45;;;;;;;7.63;3.77;;;13.70;99.90;;;;;;4933213;29;20509;-71
2022/02/13 12:51:11;;;;;;;4.73;3.90;;;13.50;99.90;;;;;;4933210;29;20528;-71
2022/02/13 12:53:37;;;;;;;6.37;3.83;;;13.40;99.90;;;;;;4933658;29;20444;-71
2022/02/13 12:56:15;;;;;;;4.03;2.63;;;13.30;99.90;;;;;;4937430;29;20185;-70
2022/02/13 12:58:40;;;;;;;3.67;3.37;;;13.20;99.90;;;;;;4937569;29;20416;-71
2022/02/13 13:01:06;;;;;;;7.70;3.37;;;13.10;99.90;;;;;;4937320;29;20814;-71
2022/02/13 13:03:36;;;;;;;8.00;3.70;;;13.10;99.90;;;;;;4937157;29;20182;-70
2022/02/13 13:06:03;;;;;;;11.40;4.27;;;13.00;99.90;;;;;;4937407;29;20212;-71
2022/02/13 13:08:43;;;;;;;4.93;2.60;;;13.10;99.90;;;;;;4937368;29;20480;-71
2022/02/13 13:11:08;;;;;;;4.20;3.80;;;13.20;99.90;;;;;;4937100;29;20433;-71
2022/02/13 13:13:36;;;;;;;3.80;2.97;;;13.10;99.90;;;;;;4937135;29;20436;-71
2022/02/13 13:16:11;;;;;;;5.17;3.30;;;13.00;99.90;;;;;;4937174;29;20189;-71
2022/02/13 13:18:55;;;;;;;8.30;3.20;;;13.00;99.90;;;;;;4937281;29;20850;-70
2022/02/13 13:21:35;;;;;;;7.17;3.37;;;12.90;99.90;;;;;;4936843;29;20953;-71
2022/02/13 13:24:12;;;;;;;5.67;3.23;;;12.80;99.90;;;;;;4936992;29;20409;-72
2022/02/13 13:26:41;;;;;;;4.73;3.67;;;12.80;99.90;;;;;;4920046;29;20471;-71
2022/02/13 13:29:26;;;;;;;7.93;3.57;;;12.80;99.90;;;;;;4937007;29;20421;-70
2022/02/13 13:31:58;;;;;;;3.20;2.90;;;12.80;99.90;;;;;;4936663;29;20463;-72
2022/02/13 13:34:28;;;;;;;3.83;2.90;;;12.70;99.90;;;;;;4936508;29;20424;-72
2022/02/13 13:36:54;;;;;;;4.93;3.57;;;12.50;99.90;;;;;;4936949;29;20420;-71
2022/02/13 13:39:34;;;;;;;8.07;2.80;;;12.50;99.90;;;;;;4936674;29;20699;-71
2022/02/13 13:42:20;;;;;;;7.10;3.07;;;12.50;99.90;;;;;;4936698;29;20444;-71
2022/02/13 13:44:45;;;;;;;11.83;3.80;;;12.50;99.90;;;;;;4936001;29;20429;-71
2022/02/13 13:47:17;;;;;;;7.80;3.27;;;12.60;99.90;;;;;;4936448;29;20961;-70
2022/02/13 13:49:43;;;;;;;10.13;3.83;;;12.70;99.90;;;;;;4936641;29;20170;-72
2022/02/13 13:52:08;;;;;;;6.17;3.10;;;12.70;99.90;;;;;;4936428;29;20443;-72
2022/02/13 13:54:34;;;;;;;4.10;3.30;;;12.60;99.90;;;;;;4919341;29;20591;-68
2022/02/13 13:57:00;;;;;;;5.57;3.00;;;12.60;99.90;;;;;;4936649;29;20170;-68
2022/02/13 13:59:25;;;;;;;6.30;3.20;;;12.50;99.90;;;;;;4936086;29;20778;-68
2022/02/13 14:01:51;;;;;;;5.97;3.70;;;12.40;99.90;;;;;;4936374;29;20212;-68
2022/02/13 14:04:16;;;;;;;5.13;3.00;;;12.40;99.90;;;;;;4935961;29;20232;-68
2022/02/13 14:06:46;;;;;;;4.83;2.60;;;12.50;99.90;;;;;;4936311;29;20792;-69
2022/02/13 14:09:13;;;;;;;6.50;3.60;;;12.50;99.90;;;;;;4935970;29;20186;-68
2022/02/13 14:11:40;;;;;;;4.17;2.53;;;12.60;99.90;;;;;;4936197;29;20469;-69
2022/02/13 14:14:07;;;;;;;3.13;2.70;;;12.50;99.90;;;;;;4935813;29;20465;-69
2022/02/13 14:16:33;;;;;;;6.23;2.90;;;12.50;99.90;;;;;;4936419;29;20457;-69
2022/02/13 14:18:59;;;;;;;3.17;2.70;;;12.40;99.90;;;;;;4936072;29;20436;-69
2022/02/13 14:21:25;;;;;;;3.50;3.20;;;12.40;99.90;;;;;;4935951;29;20197;-69
2022/02/13 14:23:50;;;;;;;7.53;2.93;;;12.40;99.90;;;;;;4935760;29;20492;-70
2022/02/13 14:26:16;;;;;;;2.97;2.73;;;12.30;99.90;;;;;;4935854;29;20307;-69
2022/02/13 14:28:41;;;;;;;4.70;2.87;;;12.30;99.90;;;;;;4918887;29;20189;-68
2022/02/13 14:31:07;;;;;;;5.53;3.03;;;12.30;99.90;;;;;;4935435;29;20220;-70
2022/02/13 14:33:32;;;;;;;6.33;3.30;;;12.30;99.90;;;;;;4935610;29;20774;-69
2022/02/13 14:35:58;;;;;;;4.33;2.60;;;12.30;99.90;;;;;;4935664;29;20206;-69
2022/02/13 14:38:24;;;;;;;6.10;3.03;;;12.30;99.90;;;;;;4935629;29;20261;-69
2022/02/13 14:40:49;;;;;;;5.77;3.20;;;12.20;99.90;;;;;;4935483;29;20182;-69
2022/02/13 14:43:18;;;;;;;3.00;2.67;;;12.20;99.90;;;;;;4935378;29;20208;-68
2022/02/13 14:45:45;;;;;;;4.47;3.00;;;12.20;99.90;;;;;;4935417;29;20670;-69
2022/02/13 14:48:10;;;;;;;5.80;2.87;;;12.20;99.90;;;;;;4935558;29;20516;-69
2022/02/13 14:50:36;;;;;;;5.40;3.00;;;12.30;99.90;;;;;;4935132;29;20607;-70
2022/02/13 14:53:02;;;;;;;6.23;2.87;;;12.20;99.90;;;;;;4935438;29;20639;-71
2022/02/13 14:55:28;;;;;;;6.73;2.87;;;12.20;99.90;;;;;;4935313;29;20193;-71
2022/02/13 14:57:53;;;;;;;3.43;2.20;;;12.20;99.90;;;;;;4935602;29;20428;-71
2022/02/13 15:00:19;;;;;;;3.67;2.30;;;12.20;99.90;;;;;;4935093;29;20267;-73
2022/02/13 15:02:45;;;;;;;5.07;2.80;;;12.20;99.90;;;;;;4935253;29;20233;-69
2022/02/13 15:05:11;;;;;;;5.83;2.50;;;12.20;99.90;;;;;;4935324;29;20201;-72
2022/02/13 15:07:36;;;;;;;7.00;2.83;;;12.10;99.90;;;;;;4935331;29;21063;-71
2022/02/13 15:10:04;;;;;;;5.20;2.80;;;12.10;99.90;;;;;;4935050;29;20193;-71
2022/02/13 15:12:29;;;;;;;5.97;2.80;;;12.20;99.90;;;;;;4934990;29;20616;-71
2022/02/13 15:14:55;;;;;;;2.97;2.60;;;12.20;99.90;;;;;;4934938;29;20413;-71
2022/02/13 15:17:20;;;;;;;6.53;2.60;;;12.10;99.90;;;;;;4934162;29;20177;-71
2022/02/13 15:19:46;;;;;;;5.30;2.80;;;12.10;99.90;;;;;;4935052;29;20268;-71
2022/02/13 15:22:13;;;;;;;5.20;2.87;;;12.10;99.90;;;;;;4934765;29;20207;-71
2022/02/13 15:24:38;;;;;;;3.10;2.23;;;12.00;99.90;;;;;;4934803;29;20180;-72
2022/02/13 15:27:04;;;;;;;3.50;2.73;;;12.00;99.90;;;;;;4934961;29;20996;-71
2022/02/13 15:29:29;;;;;;;2.40;2.10;;;11.90;99.90;;;;;;4934595;29;20174;-70
2022/02/13 15:31:55;;;;;;;5.17;3.10;;;11.90;99.90;;;;;;4934756;29;20241;-71
2022/02/13 15:34:20;;;;;;;5.90;2.50;;;11.90;99.90;;;;;;4934431;29;20197;-70
2022/02/13 15:36:46;;;;;;;2.67;2.20;;;11.80;99.90;;;;;;4934870;29;20181;-70
2022/02/13 15:39:11;;;;;;;6.70;2.80;;;11.80;99.90;;;;;;4934612;29;20185;-71
2022/02/13 15:41:37;;;;;;;5.17;2.73;;;11.70;99.90;;;;;;4934590;29;20267;-72
2022/02/13 15:44:03;;;;;;;4.20;2.80;;;11.70;99.90;;;;;;4934400;29;20196;-71
2022/02/13 15:46:28;;;;;;;3.93;2.37;;;11.70;99.90;;;;;;4934467;29;20586;-71
2022/02/13 15:48:54;;;;;;;5.50;2.73;;;11.60;99.90;;;;;;4934619;29;20638;-72
2022/02/13 15:51:20;;;;;;;4.90;2.50;;;11.60;99.90;;;;;;4934185;29;20212;-71
2022/02/13 15:53:46;;;;;;;5.43;2.60;;;11.50;99.90;;;;;;4933651;29;20488;-71
2022/02/13 15:56:12;;;;;;;4.13;2.83;;;11.50;99.90;;;;;;4934387;29;20453;-71
2022/02/13 15:58:37;;;;;;;3.17;2.87;;;11.50;99.90;;;;;;4934489;29;20182;-71
2022/02/13 16:01:03;;;;;;;5.77;2.87;;;11.40;99.90;;;;;;4934154;29;20197;-71
2022/02/13 16:03:28;;;;;;;5.53;2.23;;;11.30;99.90;;;;;;4934172;29;20188;-72
2022/02/13 16:05:54;;;;;;;6.03;3.03;;;11.30;99.90;;;;;;4934116;29;20220;-72
2022/02/13 16:08:19;;;;;;;5.03;2.33;;;11.30;99.90;;;;;;4934234;29;20178;-72
2022/02/13 16:10:45;;;;;;;5.80;2.50;;;11.20;99.90;;;;;;4934175;29;20185;-71
2022/02/13 16:13:10;;;;;;;6.00;3.23;;;11.20;99.90;;;;;;4933985;29;20216;-70
2022/02/13 16:15:36;;;;;;;7.00;3.80;;;11.10;99.90;;;;;;4934188;29;20177;-71
2022/02/13 16:18:02;;;;;;;6.90;3.40;;;11.00;99.90;;;;;;4933976;29;20177;-71
2022/02/13 16:20:27;;;;;;;5.60;3.67;;;10.90;99.90;;;;;;4933988;29;20643;-70
2022/02/13 16:22:53;;;;;;;4.80;3.53;;;10.80;99.90;;;;;;4933927;29;20202;-70
2022/02/13 16:25:21;;;;;;;6.37;4.07;;;10.80;99.90;;;;;;4933954;29;20216;-71
2022/02/13 16:27:49;;;;;;;9.87;6.63;;;10.60;99.90;;;;;;4934067;29;20236;-71
2022/02/13 16:30:15;;;;;;;10.27;5.43;;;10.40;99.90;;;;;;4936371;29;20524;-71
2022/02/13 16:32:40;;;;;;;8.87;5.70;;;10.20;99.90;;;;;;4937899;29;20484;-72
2022/02/13 16:35:06;;;;;;;8.10;4.97;;;9.90;99.90;;;;;;4937874;29;20210;-71
2022/02/13 16:37:32;;;;;;;13.80;4.70;;;9.80;99.90;;;;;;4937728;29;20185;-71
2022/02/13 16:39:57;;;;;;;11.73;4.40;;;9.60;99.90;;;;;;4937849;29;20180;-71
2022/02/13 16:42:23;;;;;;;5.17;3.73;;;9.40;99.90;;;;;;4937624;29;20203;-70
2022/02/13 16:44:48;;;;;;;5.00;2.80;;;9.20;99.90;;;;;;4937702;29;20175;-71
2022/02/13 16:47:17;;;;;;;4.10;2.93;;;9.10;99.90;;;;;;4945123;28;20269;-70
2022/02/13 16:49:43;;;;;;;7.20;3.27;;;8.90;99.90;;;;;;4956277;28;20584;-71
2022/02/13 16:52:09;;;;;;;5.77;3.17;;;8.70;99.90;;;;;;4956279;28;20463;-71
2022/02/13 16:54:35;;;;;;;5.43;3.00;;;8.50;99.90;;;;;;4956044;28;20284;-72
2022/02/13 16:57:02;;;;;;;9.67;3.10;;;8.40;99.90;;;;;;4956313;28;20976;-71
2022/02/13 16:59:28;;;;;;;2.77;2.40;;;8.20;99.90;;;;;;4955859;28;20725;-71
2022/02/13 17:01:54;;;;;;;4.97;2.90;;;8.00;99.90;;;;;;4956129;28;20469;-71
2022/02/13 17:04:19;;;;;;;4.90;3.33;;;7.90;99.90;;;;;;4955928;29;20208;-71
2022/02/13 17:06:47;;;;;;;2.80;2.43;;;7.70;99.90;;;;;;4956300;28;20492;-71
2022/02/13 17:09:13;;;;;;;3.80;2.70;;;7.60;99.90;;;;;;4956132;29;20667;-71
2022/02/13 17:11:38;;;;;;;3.57;2.30;;;7.40;99.90;;;;;;4956311;28;20566;-72
2022/02/13 17:14:04;;;;;;;5.17;3.40;;;7.30;99.90;;;;;;4939018;29;20209;-72
2022/02/13 17:16:30;;;;;;;4.90;3.40;;;7.20;99.90;;;;;;4938791;29;20711;-72
2022/02/13 17:18:56;;;;;;;5.13;3.00;;;7.10;99.90;;;;;;4955805;29;20960;-72
2022/02/13 17:21:21;;;;;;;6.30;2.70;;;6.90;99.90;;;;;;4955581;28;20218;-72